Harbine, Nebraska
Current Conditions -  °F | °C
As of 1:55 AM on Saturday 20 Dec 2014 (Local Time) from KBIE Reporting Station
Overcast Overcast  
Wind Chill: 25°   Ceiling: 900
Heat Index: 32°   Visibility: 7mi
Dew Point: 31°   Wind: 8mph
Humidity: 95%   Direction: 170°S
Pressure: 30.08"   Gusts: NA
Location:  40.219°N, 97.0292°W
Report Text: KBIE 200755Z AUTO 17007KT 7SM OVC009 00/00 A3008 RMK AO2 T00021005
Loading
Personal Weather Stations






























Interactive Weather Map New forecast layout! Learn more

10-Day Weather Forecast

Advertisements
Track Severe Weather on mobile